Time;durP1;ratioP1;P1;durP2;ratioP2;P2;SDS_P1;SDS_P2;PMS_P1;PMS_P2;Temp;Humidity;BMP_temperature;BMP_pressure;BME280_temperature;BME280_humidity;BME280_pressure;Samples;Min_cycle;Max_cycle;Signal;HPM_P1;HPM_P2
2023/11/30 00:02:11;;;;;;;5.28;4.93;;;17.40;65.90;;;;;;4967987;28;20121;-78
2023/11/30 00:04:37;;;;;;;5.22;4.90;;;17.30;65.90;;;;;;4972384;28;20042;-77
2023/11/30 00:07:03;;;;;;;5.13;4.82;;;17.30;65.90;;;;;;4969511;28;20047;-77
2023/11/30 00:09:28;;;;;;;4.85;4.55;;;17.30;65.90;;;;;;4950676;28;20051;-77
2023/11/30 00:11:54;;;;;;;4.90;4.50;;;17.30;65.90;;;;;;4966017;28;20038;-77
2023/11/30 00:14:19;;;;;;;4.68;4.38;;;17.30;65.90;;;;;;4951952;28;20101;-77
2023/11/30 00:16:45;;;;;;;4.63;4.32;;;17.30;66.00;;;;;;4952758;28;20043;-82
2023/11/30 00:19:10;;;;;;;4.95;4.65;;;17.30;65.90;;;;;;4965835;28;20046;-82
2023/11/30 00:21:36;;;;;;;5.00;4.70;;;17.30;65.90;;;;;;4967739;28;20114;-81
2023/11/30 00:24:01;;;;;;;4.40;4.20;;;17.20;65.90;;;;;;4963007;28;20039;-83
2023/11/30 00:26:27;;;;;;;3.92;3.72;;;17.20;66.20;;;;;;4964273;28;20059;-83
2023/11/30 00:28:53;;;;;;;4.82;4.43;;;17.20;65.70;;;;;;4967539;28;20037;-82
2023/11/30 00:31:18;;;;;;;4.00;3.80;;;17.20;65.10;;;;;;4981564;28;20038;-82
2023/11/30 00:33:44;;;;;;;4.43;4.22;;;17.30;65.10;;;;;;4966695;28;20128;-83
2023/11/30 00:36:10;;;;;;;4.60;4.30;;;17.20;65.10;;;;;;4965873;28;20039;-82
2023/11/30 00:38:35;;;;;;;4.10;3.83;;;17.30;65.50;;;;;;4962583;28;20039;-83
2023/11/30 00:41:01;;;;;;;4.32;4.03;;;17.20;65.40;;;;;;4967125;28;20034;-83
2023/11/30 00:43:26;;;;;;;4.85;4.55;;;17.20;65.70;;;;;;4965410;28;20041;-82
2023/11/30 00:45:52;;;;;;;4.90;4.60;;;17.20;65.00;;;;;;4963425;28;20037;-81
2023/11/30 00:48:17;;;;;;;3.90;3.70;;;17.20;65.00;;;;;;4963040;28;20122;-80
2023/11/30 00:50:44;;;;;;;4.35;4.15;;;17.20;65.00;;;;;;4950386;28;20046;-80
2023/11/30 00:53:10;;;;;;;4.28;4.07;;;17.20;65.10;;;;;;4969016;28;20035;-80
2023/11/30 00:55:35;;;;;;;3.95;3.72;;;17.20;64.90;;;;;;4967290;28;20142;-80
2023/11/30 00:58:01;;;;;;;4.55;4.25;;;17.20;64.90;;;;;;4965556;28;20046;-80
2023/11/30 01:00:26;;;;;;;4.30;4.10;;;17.20;65.10;;;;;;4967272;28;20532;-80
2023/11/30 01:02:52;;;;;;;3.88;3.67;;;17.10;64.80;;;;;;4965171;28;20034;-80
2023/11/30 01:05:17;;;;;;;3.67;3.47;;;17.20;64.90;;;;;;4966301;28;20122;-80
2023/11/30 01:07:43;;;;;;;3.88;3.67;;;17.10;64.90;;;;;;4966939;28;20039;-79
2023/11/30 01:10:09;;;;;;;3.85;3.65;;;17.10;64.90;;;;;;4967759;28;20031;-79
2023/11/30 01:12:35;;;;;;;3.97;3.78;;;17.10;65.00;;;;;;4965114;28;20168;-79
2023/11/30 01:15:00;;;;;;;4.25;3.95;;;17.10;65.00;;;;;;4966000;28;20043;-79
2023/11/30 01:17:26;;;;;;;3.85;3.65;;;17.10;65.00;;;;;;4965477;28;20074;-79
2023/11/30 01:19:51;;;;;;;3.40;3.20;;;17.10;65.00;;;;;;4967064;28;20345;-83
2023/11/30 01:22:17;;;;;;;3.70;3.50;;;17.10;65.00;;;;;;4964255;28;20141;-82
2023/11/30 01:24:42;;;;;;;3.95;3.72;;;17.10;65.20;;;;;;4966369;28;20043;-83
2023/11/30 01:27:08;;;;;;;3.65;3.45;;;17.00;65.00;;;;;;4949348;28;20031;-83
2023/11/30 01:29:33;;;;;;;3.60;3.40;;;17.10;65.20;;;;;;4963722;28;20497;-83
2023/11/30 01:31:59;;;;;;;3.22;3.03;;;17.10;65.10;;;;;;4966616;28;20086;-82
2023/11/30 01:34:24;;;;;;;4.13;3.85;;;17.00;65.10;;;;;;4963004;28;20054;-82
2023/11/30 01:36:50;;;;;;;3.70;3.50;;;17.00;65.10;;;;;;4950524;28;20079;-85
2023/11/30 01:39:16;;;;;;;3.90;3.70;;;17.00;65.10;;;;;;4965274;28;20494;-85
2023/11/30 01:41:41;;;;;;;3.60;3.40;;;17.00;65.20;;;;;;4965418;28;20038;-85
2023/11/30 01:44:08;;;;;;;3.65;3.35;;;17.00;66.00;;;;;;4948923;28;20053;-85
2023/11/30 01:46:33;;;;;;;3.42;3.22;;;17.00;65.20;;;;;;4964305;28;20184;-85
2023/11/30 01:48:59;;;;;;;3.58;3.38;;;17.00;65.20;;;;;;4962702;28;20573;-85
2023/11/30 01:51:27;;;;;;;3.17;2.97;;;16.90;65.20;;;;;;4960440;28;20050;-85
2023/11/30 01:53:53;;;;;;;3.30;3.10;;;17.00;65.30;;;;;;4965097;28;20050;-85
2023/11/30 01:56:20;;;;;;;3.00;2.83;;;17.00;65.30;;;;;;4960806;28;20072;-85
2023/11/30 01:58:45;;;;;;;3.22;3.03;;;16.90;65.30;;;;;;4951051;28;20042;-85
2023/11/30 02:01:11;;;;;;;3.45;3.25;;;16.90;65.40;;;;;;4964756;28;20062;-84
2023/11/30 02:03:37;;;;;;;3.15;2.95;;;16.90;65.40;;;;;;4947283;28;20043;-84
2023/11/30 02:06:03;;;;;;;3.15;2.95;;;16.90;65.30;;;;;;4963719;28;20047;-84
2023/11/30 02:08:28;;;;;;;3.40;3.20;;;16.90;65.40;;;;;;4949862;28;20038;-84
2023/11/30 02:10:54;;;;;;;3.28;3.08;;;16.90;65.40;;;;;;4932145;28;20053;-84
2023/11/30 02:13:19;;;;;;;2.88;2.72;;;16.90;65.40;;;;;;4963670;28;20324;-83
2023/11/30 02:15:45;;;;;;;2.88;2.75;;;16.90;65.50;;;;;;4966617;28;20420;-84
2023/11/30 02:18:11;;;;;;;3.05;2.88;;;16.90;65.50;;;;;;4962568;28;20046;-84
2023/11/30 02:20:36;;;;;;;3.20;3.00;;;16.90;66.30;;;;;;4948233;28;20121;-84
2023/11/30 02:23:02;;;;;;;3.40;3.20;;;16.90;65.60;;;;;;4964928;28;20042;-80
2023/11/30 02:25:27;;;;;;;3.15;2.95;;;16.90;65.60;;;;;;4966872;28;20101;-82
2023/11/30 02:27:53;;;;;;;3.15;2.95;;;16.80;65.50;;;;;;4964321;28;20146;-82
2023/11/30 02:30:18;;;;;;;3.15;2.95;;;16.80;65.50;;;;;;4963656;28;20035;-80
2023/11/30 02:32:44;;;;;;;3.33;3.13;;;16.80;65.60;;;;;;4963576;28;20054;-80
2023/11/30 02:35:10;;;;;;;3.25;3.05;;;16.80;65.60;;;;;;4967070;28;20049;-80
2023/11/30 02:37:35;;;;;;;3.20;3.00;;;16.80;65.70;;;;;;4967616;28;20075;-82
2023/11/30 02:40:01;;;;;;;3.03;2.88;;;16.80;65.70;;;;;;4961863;28;20047;-82
2023/11/30 02:42:26;;;;;;;3.25;3.05;;;16.80;65.70;;;;;;4965595;28;20421;-82
2023/11/30 02:44:52;;;;;;;3.20;3.00;;;16.80;65.80;;;;;;4963732;28;20057;-82
2023/11/30 02:47:18;;;;;;;3.55;3.35;;;16.80;65.90;;;;;;4964854;28;20066;-81
2023/11/30 02:49:43;;;;;;;3.10;2.92;;;16.80;65.90;;;;;;4965851;28;20190;-82
2023/11/30 02:52:09;;;;;;;2.40;2.30;;;16.80;65.80;;;;;;4959607;28;20133;-82
2023/11/30 02:54:34;;;;;;;2.90;2.80;;;16.80;65.70;;;;;;4965660;28;20038;-81
2023/11/30 02:57:00;;;;;;;2.80;2.67;;;16.80;65.80;;;;;;4964738;28;20090;-81
2023/11/30 02:59:25;;;;;;;2.65;2.55;;;16.70;65.90;;;;;;4963868;28;20051;-81
2023/11/30 03:01:52;;;;;;;2.65;2.55;;;16.70;65.90;;;;;;4964751;28;20047;-81
2023/11/30 03:04:17;;;;;;;2.80;2.60;;;16.70;65.90;;;;;;4961719;28;20058;-81
2023/11/30 03:06:47;;;;;;;2.80;2.70;;;16.70;65.80;;;;;;4961279;28;20489;-82
2023/11/30 03:09:12;;;;;;;3.00;2.80;;;16.70;66.70;;;;;;4963268;28;20061;-83
2023/11/30 03:11:38;;;;;;;3.10;2.90;;;16.70;65.80;;;;;;4965122;28;20524;-82
2023/11/30 03:14:04;;;;;;;3.00;2.80;;;16.70;65.90;;;;;;4964234;28;20509;-82
2023/11/30 03:16:29;;;;;;;2.67;2.58;;;16.70;65.80;;;;;;4964974;28;20046;-82
2023/11/30 03:18:56;;;;;;;2.90;2.70;;;16.70;65.80;;;;;;4958582;28;20110;-82
2023/11/30 03:21:22;;;;;;;2.63;2.53;;;16.70;65.90;;;;;;4965021;28;20031;-82
2023/11/30 03:23:49;;;;;;;2.80;2.70;;;16.70;66.00;;;;;;4960728;28;20058;-82
2023/11/30 03:26:16;;;;;;;2.63;2.53;;;16.60;65.80;;;;;;4961582;28;20054;-80
2023/11/30 03:28:42;;;;;;;2.80;2.70;;;16.70;65.90;;;;;;4961234;28;20047;-82
2023/11/30 03:31:07;;;;;;;2.72;2.63;;;16.70;65.90;;;;;;4963016;28;20039;-82
2023/11/30 03:33:33;;;;;;;3.20;3.00;;;16.70;65.90;;;;;;4961293;28;20043;-82
2023/11/30 03:35:58;;;;;;;2.50;2.40;;;16.70;65.90;;;;;;4965565;28;20096;-82
2023/11/30 03:38:24;;;;;;;2.88;2.70;;;16.70;66.70;;;;;;4964362;28;20120;-80
2023/11/30 03:40:49;;;;;;;2.65;2.55;;;16.70;65.80;;;;;;4962815;28;20424;-80
2023/11/30 03:43:15;;;;;;;2.75;2.65;;;16.60;65.90;;;;;;4963039;28;20042;-80
2023/11/30 03:45:40;;;;;;;2.38;2.17;;;16.60;65.90;;;;;;4967392;28;20035;-80
2023/11/30 03:48:06;;;;;;;2.50;2.40;;;16.70;65.90;;;;;;4983529;28;20053;-81
2023/11/30 03:50:31;;;;;;;2.42;2.33;;;16.60;65.80;;;;;;4964767;28;20102;-80
2023/11/30 03:52:57;;;;;;;2.20;2.10;;;16.70;65.90;;;;;;4968639;28;20517;-82
2023/11/30 03:55:23;;;;;;;2.60;2.50;;;16.60;65.90;;;;;;4966303;28;20335;-82
2023/11/30 03:57:48;;;;;;;2.10;2.00;;;16.60;65.90;;;;;;4967832;28;20046;-82
2023/11/30 04:00:15;;;;;;;2.15;2.05;;;16.60;65.90;;;;;;4965454;28;20043;-82
2023/11/30 04:02:42;;;;;;;2.10;2.00;;;16.60;65.90;;;;;;4967408;28;20414;-82
2023/11/30 04:05:07;;;;;;;2.30;2.20;;;16.60;65.90;;;;;;4968137;28;20093;-80
2023/11/30 04:07:33;;;;;;;2.17;2.08;;;16.60;65.90;;;;;;4968174;28;20523;-80
2023/11/30 04:09:59;;;;;;;2.13;2.03;;;16.60;65.90;;;;;;4966306;28;20095;-81
2023/11/30 04:12:24;;;;;;;2.42;2.33;;;16.60;65.90;;;;;;4965638;28;20413;-81
2023/11/30 04:14:50;;;;;;;2.10;2.00;;;16.60;66.00;;;;;;4933917;28;20086;-81
2023/11/30 04:17:16;;;;;;;2.00;1.90;;;16.60;66.00;;;;;;4962834;28;20043;-81
2023/11/30 04:19:42;;;;;;;2.58;2.38;;;16.60;65.90;;;;;;4967369;28;20031;-81
2023/11/30 04:22:08;;;;;;;2.22;2.13;;;16.60;66.00;;;;;;4966006;28;20031;-82
2023/11/30 04:24:34;;;;;;;2.20;2.10;;;16.60;65.90;;;;;;4967370;28;20039;-81
2023/11/30 04:27:00;;;;;;;2.08;1.98;;;16.60;66.00;;;;;;4969295;28;20398;-80
2023/11/30 04:29:25;;;;;;;2.17;2.08;;;16.60;66.00;;;;;;4969120;28;20117;-81
2023/11/30 04:31:51;;;;;;;2.15;2.05;;;16.60;65.90;;;;;;4965430;28;20138;-83
2023/11/30 04:34:18;;;;;;;2.03;1.92;;;16.60;65.90;;;;;;4965188;28;20058;-83
2023/11/30 04:36:44;;;;;;;2.10;2.00;;;16.60;65.90;;;;;;4949706;28;20042;-81
2023/11/30 04:39:11;;;;;;;2.15;2.05;;;16.60;65.90;;;;;;4966331;28;20039;-80
2023/11/30 04:41:37;;;;;;;2.20;2.10;;;16.50;65.70;;;;;;4965803;28;20026;-79
2023/11/30 04:44:03;;;;;;;1.75;1.65;;;16.50;65.80;;;;;;4968234;28;20189;-79
2023/11/30 04:46:29;;;;;;;2.10;2.00;;;16.60;65.80;;;;;;4966540;28;20585;-79
2023/11/30 04:48:55;;;;;;;2.17;2.08;;;16.60;65.80;;;;;;4966643;28;20068;-79
2023/11/30 04:51:21;;;;;;;1.88;1.77;;;16.50;65.80;;;;;;4964948;28;20057;-79
2023/11/30 04:53:47;;;;;;;1.65;1.58;;;16.50;65.80;;;;;;4964995;28;20030;-79
2023/11/30 04:56:12;;;;;;;1.73;1.63;;;16.50;65.90;;;;;;4965449;28;20468;-79
2023/11/30 04:58:38;;;;;;;1.90;1.80;;;16.50;65.80;;;;;;4966942;28;20125;-79
2023/11/30 05:01:04;;;;;;;2.33;2.22;;;16.60;65.80;;;;;;4982088;28;20043;-79
2023/11/30 05:03:29;;;;;;;2.15;2.05;;;16.50;65.80;;;;;;4967020;28;20074;-79
2023/11/30 05:05:55;;;;;;;1.83;1.73;;;16.50;65.60;;;;;;4968907;28;20037;-79
2023/11/30 05:08:20;;;;;;;1.90;1.80;;;16.50;65.60;;;;;;4967187;28;20497;-79
2023/11/30 05:10:46;;;;;;;2.13;2.03;;;16.50;65.60;;;;;;4966744;28;20382;-80
2023/11/30 05:13:11;;;;;;;2.15;2.05;;;16.50;65.60;;;;;;4968992;28;20043;-79
2023/11/30 05:15:38;;;;;;;2.10;1.98;;;16.50;65.50;;;;;;4964122;28;20085;-79
2023/11/30 05:18:04;;;;;;;2.03;1.92;;;16.50;65.50;;;;;;4965369;28;20649;-81
2023/11/30 05:20:30;;;;;;;2.33;2.22;;;16.50;65.40;;;;;;4968534;28;20111;-80
2023/11/30 05:22:55;;;;;;;1.85;1.75;;;16.50;65.40;;;;;;4966659;28;20122;-80
2023/11/30 05:25:21;;;;;;;2.00;1.83;;;16.50;65.40;;;;;;4963237;28;20043;-81
2023/11/30 05:27:47;;;;;;;2.20;2.00;;;16.50;65.30;;;;;;4963076;28;20183;-81
2023/11/30 05:30:12;;;;;;;2.10;1.90;;;16.50;65.20;;;;;;4963183;28;20039;-83
2023/11/30 05:32:38;;;;;;;2.10;2.00;;;16.50;65.20;;;;;;4965400;28;20053;-82
2023/11/30 05:35:05;;;;;;;1.55;1.45;;;16.50;65.30;;;;;;4965710;28;20054;-82
2023/11/30 05:37:31;;;;;;;2.03;1.92;;;16.50;65.10;;;;;;4965886;28;20038;-81
2023/11/30 05:39:56;;;;;;;1.80;1.70;;;16.50;65.30;;;;;;4965758;28;20042;-81
2023/11/30 05:42:22;;;;;;;1.70;1.60;;;16.50;65.20;;;;;;4965382;28;20031;-82
2023/11/30 05:44:47;;;;;;;1.60;1.50;;;16.50;65.20;;;;;;4980007;28;20543;-80
2023/11/30 05:47:14;;;;;;;1.60;1.50;;;16.50;65.10;;;;;;4965174;28;20024;-79
2023/11/30 05:49:39;;;;;;;1.55;1.45;;;16.50;65.20;;;;;;4950710;28;20031;-80
2023/11/30 05:52:05;;;;;;;2.20;2.10;;;16.50;65.30;;;;;;4944470;28;20050;-81
2023/11/30 05:54:30;;;;;;;1.90;1.80;;;16.50;65.30;;;;;;4967159;28;20086;-82
2023/11/30 05:56:56;;;;;;;2.15;2.03;;;16.50;66.10;;;;;;4964702;28;20531;-82
2023/11/30 05:59:21;;;;;;;1.63;1.52;;;16.50;65.40;;;;;;4963290;28;20074;-82
2023/11/30 06:01:47;;;;;;;1.90;1.80;;;16.50;65.20;;;;;;4962197;28;20045;-79
2023/11/30 06:04:13;;;;;;;1.98;1.88;;;16.50;65.30;;;;;;4962360;28;20692;-79
2023/11/30 06:06:38;;;;;;;1.88;1.77;;;16.50;65.20;;;;;;4962027;28;20529;-79
2023/11/30 06:09:04;;;;;;;2.13;2.03;;;16.50;65.20;;;;;;4960557;28;20055;-79
2023/11/30 06:11:30;;;;;;;2.03;1.92;;;16.50;65.10;;;;;;4962206;28;20046;-79
2023/11/30 06:13:56;;;;;;;1.55;1.45;;;16.50;65.10;;;;;;4967994;28;20058;-79
2023/11/30 06:16:21;;;;;;;1.88;1.77;;;16.40;65.00;;;;;;4964694;28;20498;-81
2023/11/30 06:18:47;;;;;;;1.73;1.63;;;16.50;65.10;;;;;;4965604;28;20290;-82
2023/11/30 06:21:12;;;;;;;1.98;1.88;;;16.50;65.00;;;;;;4964911;28;20042;-82
2023/11/30 06:23:38;;;;;;;1.90;1.80;;;16.50;65.10;;;;;;4964301;28;20062;-79
2023/11/30 06:26:04;;;;;;;1.98;1.88;;;16.50;65.10;;;;;;4960721;28;20137;-81
2023/11/30 06:28:30;;;;;;;1.60;1.50;;;16.40;65.00;;;;;;4963666;28;20089;-80
2023/11/30 06:30:56;;;;;;;1.83;1.75;;;16.40;65.00;;;;;;4963406;28;20043;-82
2023/11/30 06:33:21;;;;;;;1.65;1.55;;;16.40;65.10;;;;;;4964162;28;20027;-82
2023/11/30 06:35:47;;;;;;;1.75;1.65;;;16.40;64.90;;;;;;4960877;28;20134;-82
2023/11/30 06:38:12;;;;;;;1.88;1.52;;;16.50;65.10;;;;;;4962482;28;20164;-81
2023/11/30 06:40:38;;;;;;;1.70;1.60;;;16.40;65.00;;;;;;4962101;28;20039;-82
2023/11/30 06:43:04;;;;;;;1.50;1.40;;;16.40;65.00;;;;;;4961204;28;20039;-82
2023/11/30 06:45:30;;;;;;;1.50;1.40;;;16.40;64.90;;;;;;4940503;28;20046;-82
2023/11/30 06:47:55;;;;;;;1.50;1.40;;;16.40;65.00;;;;;;4961181;28;20034;-83
2023/11/30 06:50:21;;;;;;;1.38;1.35;;;16.40;66.10;;;;;;4964303;28;20049;-81
2023/11/30 06:52:47;;;;;;;1.80;1.70;;;16.40;66.40;;;;;;4962307;28;20122;-82
2023/11/30 06:55:12;;;;;;;2.08;1.88;;;16.40;66.40;;;;;;4963811;28;20047;-83
2023/11/30 06:57:38;;;;;;;1.70;1.60;;;16.40;66.60;;;;;;4959976;28;20070;-84
2023/11/30 07:00:09;;;;;;;1.92;1.40;;;16.40;66.70;;;;;;4960365;28;20069;-84
2023/11/30 07:02:34;;;;;;;1.60;1.50;;;16.50;66.90;;;;;;4961056;28;20057;-81
2023/11/30 07:05:00;;;;;;;1.92;1.83;;;16.50;67.00;;;;;;4959638;28;20480;-82
2023/11/30 07:07:26;;;;;;;1.80;1.70;;;16.40;67.20;;;;;;4960572;28;20098;-80
2023/11/30 07:09:51;;;;;;;1.70;1.60;;;16.40;67.10;;;;;;4976096;28;20043;-81
2023/11/30 07:12:17;;;;;;;1.23;1.23;;;16.40;67.20;;;;;;4964037;28;20126;-81
2023/11/30 07:14:42;;;;;;;1.90;1.80;;;16.50;67.00;;;;;;4959205;28;20050;-82
2023/11/30 07:17:08;;;;;;;1.80;1.70;;;16.50;67.10;;;;;;4962333;28;20114;-81
2023/11/30 07:19:34;;;;;;;1.55;1.45;;;16.50;67.50;;;;;;4964010;28;20081;-82
2023/11/30 07:21:59;;;;;;;2.03;1.92;;;16.50;67.50;;;;;;4972496;28;20101;-85
2023/11/30 07:24:25;;;;;;;1.60;1.50;;;16.50;67.90;;;;;;4962658;28;20076;-83
2023/11/30 07:26:51;;;;;;;2.05;1.38;;;16.50;67.20;;;;;;4951573;28;20050;-83
2023/11/30 07:29:18;;;;;;;1.90;1.80;;;16.50;67.50;;;;;;4976095;28;20477;-80
2023/11/30 07:31:44;;;;;;;1.90;1.80;;;16.50;67.20;;;;;;4969258;28;20051;-82
2023/11/30 07:34:09;;;;;;;1.88;1.77;;;16.50;67.00;;;;;;4965761;28;20114;-81
2023/11/30 07:36:35;;;;;;;2.10;1.50;;;16.50;66.60;;;;;;4950542;28;20051;-84
2023/11/30 07:39:01;;;;;;;1.88;1.75;;;16.50;67.10;;;;;;4967637;28;20046;-81
2023/11/30 07:41:26;;;;;;;1.70;1.60;;;16.50;66.90;;;;;;4964339;28;20050;-80
2023/11/30 07:43:52;;;;;;;1.90;1.80;;;16.50;66.30;;;;;;4965659;28;20043;-80
2023/11/30 07:46:17;;;;;;;1.85;1.55;;;16.50;66.10;;;;;;4965428;28;20043;-80
2023/11/30 07:48:43;;;;;;;2.60;1.80;;;16.50;66.10;;;;;;4964666;28;20117;-82
2023/11/30 07:51:09;;;;;;;2.90;1.33;;;16.50;66.20;;;;;;4966481;28;20579;-80
2023/11/30 07:53:35;;;;;;;1.50;1.40;;;16.50;66.00;;;;;;4967751;28;20046;-82
2023/11/30 07:56:00;;;;;;;1.75;1.65;;;16.50;66.30;;;;;;4967105;28;20046;-82
2023/11/30 07:58:26;;;;;;;3.75;1.85;;;16.50;66.80;;;;;;4966363;28;20397;-81
2023/11/30 08:00:51;;;;;;;1.77;1.65;;;16.50;65.90;;;;;;4964331;28;20043;-81
2023/11/30 08:03:17;;;;;;;2.50;1.98;;;16.50;66.00;;;;;;4966224;28;20035;-81
2023/11/30 08:05:46;;;;;;;1.75;1.65;;;16.50;66.10;;;;;;4979033;28;20486;-81
2023/11/30 08:08:12;;;;;;;2.45;1.60;;;16.40;66.10;;;;;;4965906;28;20043;-81
2023/11/30 08:10:37;;;;;;;1.92;1.77;;;16.40;66.30;;;;;;4966409;28;20449;-81
2023/11/30 08:13:03;;;;;;;1.50;1.40;;;16.40;67.30;;;;;;4964836;28;20130;-81
2023/11/30 08:15:29;;;;;;;1.48;1.38;;;16.50;66.60;;;;;;4965526;28;20046;-81
2023/11/30 08:17:54;;;;;;;1.58;1.48;;;16.40;66.60;;;;;;4961704;28;20047;-81
2023/11/30 08:20:20;;;;;;;2.75;1.70;;;16.40;66.70;;;;;;4969625;28;20520;-81
2023/11/30 08:22:46;;;;;;;1.48;1.38;;;16.40;66.70;;;;;;4966667;28;20057;-81
2023/11/30 08:25:11;;;;;;;1.40;1.30;;;16.40;66.80;;;;;;4948068;28;20046;-81
2023/11/30 08:27:38;;;;;;;1.73;1.63;;;16.40;67.50;;;;;;4964292;28;20042;-81
2023/11/30 08:30:04;;;;;;;2.38;1.40;;;16.40;66.50;;;;;;4964368;28;20138;-81
2023/11/30 08:32:30;;;;;;;1.65;1.55;;;16.40;66.60;;;;;;4968390;28;20239;-81
2023/11/30 08:34:55;;;;;;;1.30;1.20;;;16.40;66.70;;;;;;4965150;28;20421;-80
2023/11/30 08:37:21;;;;;;;1.60;1.50;;;16.40;66.50;;;;;;4949863;28;20051;-81
2023/11/30 08:39:47;;;;;;;1.70;1.45;;;16.40;66.60;;;;;;4984125;28;20137;-81
2023/11/30 08:42:12;;;;;;;1.73;1.60;;;16.40;66.70;;;;;;4967944;28;21116;-81
2023/11/30 08:44:38;;;;;;;1.50;1.40;;;16.40;66.40;;;;;;4952324;28;20047;-81
2023/11/30 08:47:04;;;;;;;1.27;1.23;;;16.40;66.40;;;;;;4966995;28;20508;-81
2023/11/30 08:49:29;;;;;;;1.33;1.33;;;16.40;66.60;;;;;;4966897;28;20031;-81
2023/11/30 08:51:55;;;;;;;1.55;1.45;;;16.40;66.70;;;;;;4964219;28;20580;-81
2023/11/30 08:54:21;;;;;;;1.50;1.20;;;16.40;66.50;;;;;;4968566;28;20057;-81
2023/11/30 08:56:47;;;;;;;1.40;1.30;;;16.40;66.50;;;;;;4963888;28;20051;-81
2023/11/30 08:59:12;;;;;;;1.40;1.30;;;16.40;66.50;;;;;;4966593;28;20051;-81
2023/11/30 09:01:38;;;;;;;1.33;1.23;;;16.40;66.50;;;;;;4968416;28;20425;-80
2023/11/30 09:04:05;;;;;;;1.95;1.17;;;16.40;66.40;;;;;;4967017;28;20042;-80
2023/11/30 09:06:32;;;;;;;1.10;1.08;;;16.40;66.30;;;;;;4964706;28;20050;-80
2023/11/30 09:09:01;;;;;;;2.22;1.33;;;16.40;66.40;;;;;;4964708;28;20539;-81
2023/11/30 09:11:30;;;;;;;2.10;1.90;;;16.30;66.30;;;;;;4967948;28;20155;-80
2023/11/30 09:13:55;;;;;;;1.33;1.23;;;16.40;66.40;;;;;;4950350;28;20042;-81
2023/11/30 09:16:21;;;;;;;2.80;1.23;;;16.40;66.40;;;;;;4968125;28;20051;-80
2023/11/30 09:18:47;;;;;;;1.33;1.20;;;16.40;66.50;;;;;;4962407;28;20073;-81
2023/11/30 09:21:12;;;;;;;1.27;1.27;;;16.40;66.40;;;;;;4962769;28;20473;-81
2023/11/30 09:23:38;;;;;;;1.20;1.10;;;16.30;66.30;;;;;;4966486;28;20109;-81
2023/11/30 09:26:07;;;;;;;2.17;1.30;;;16.30;66.40;;;;;;4966866;28;20065;-81
2023/11/30 09:28:33;;;;;;;1.98;1.20;;;16.30;66.20;;;;;;4966479;28;20521;-81
2023/11/30 09:31:02;;;;;;;1.25;1.15;;;16.40;66.50;;;;;;4966293;28;20539;-80
2023/11/30 09:33:29;;;;;;;1.35;1.25;;;16.40;66.30;;;;;;4964370;28;20043;-81
2023/11/30 09:35:55;;;;;;;1.30;1.20;;;16.30;66.40;;;;;;4968194;28;20085;-81
2023/11/30 09:38:21;;;;;;;1.10;1.00;;;16.30;66.40;;;;;;4965804;28;20512;-80
2023/11/30 09:40:47;;;;;;;1.30;1.20;;;16.30;66.40;;;;;;4965528;28;20046;-81
2023/11/30 09:43:16;;;;;;;1.77;1.60;;;16.30;66.40;;;;;;4979558;28;20523;-80
2023/11/30 09:45:44;;;;;;;1.33;1.23;;;16.40;66.50;;;;;;4962434;28;20047;-80
2023/11/30 09:48:09;;;;;;;1.67;1.58;;;16.30;67.20;;;;;;4961419;28;20099;-81
2023/11/30 09:50:35;;;;;;;1.05;1.00;;;16.30;66.50;;;;;;4965944;28;20534;-81
2023/11/30 09:53:01;;;;;;;1.10;1.10;;;16.30;66.60;;;;;;4965946;28;20078;-81
2023/11/30 09:55:26;;;;;;;1.30;1.20;;;16.30;66.40;;;;;;4949224;28;20124;-81
2023/11/30 09:57:52;;;;;;;1.10;1.10;;;16.30;66.40;;;;;;4963866;28;20446;-80
2023/11/30 10:00:18;;;;;;;2.70;1.33;;;16.30;66.50;;;;;;4964005;28;20130;-80
2023/11/30 10:02:53;;;;;;;1.38;1.27;;;16.30;66.40;;;;;;4966139;28;20504;-81
2023/11/30 10:05:19;;;;;;;1.25;1.10;;;16.30;66.40;;;;;;4965775;28;20054;-81
2023/11/30 10:07:45;;;;;;;1.23;1.08;;;16.30;66.40;;;;;;4947919;28;20083;-81
2023/11/30 10:10:11;;;;;;;1.25;1.20;;;16.30;66.30;;;;;;4962757;28;20042;-81
2023/11/30 10:12:36;;;;;;;1.20;1.20;;;16.30;66.30;;;;;;4948877;28;20184;-81
2023/11/30 10:15:02;;;;;;;1.10;1.00;;;16.30;66.50;;;;;;4964031;28;20540;-80
2023/11/30 10:17:28;;;;;;;0.98;0.98;;;16.30;66.60;;;;;;4965445;28;20521;-81
2023/11/30 10:19:57;;;;;;;1.10;1.10;;;16.30;66.50;;;;;;4966148;28;20110;-81
2023/11/30 10:22:22;;;;;;;1.25;1.15;;;16.30;66.40;;;;;;4964610;28;20046;-81
2023/11/30 10:24:49;;;;;;;1.10;1.10;;;16.30;66.30;;;;;;4963596;28;20034;-80
2023/11/30 10:27:16;;;;;;;1.30;1.20;;;16.30;66.30;;;;;;4964134;28;20422;-81
2023/11/30 10:29:43;;;;;;;2.22;0.98;;;16.30;66.30;;;;;;4961541;28;20146;-81
2023/11/30 10:32:08;;;;;;;1.10;1.10;;;16.30;66.30;;;;;;4964489;28;20093;-81
2023/11/30 10:34:40;;;;;;;1.30;1.20;;;16.30;66.30;;;;;;4931343;28;20054;-81
2023/11/30 10:37:06;;;;;;;1.40;1.15;;;16.30;66.20;;;;;;4962152;28;20063;-81
2023/11/30 10:39:34;;;;;;;1.25;1.15;;;16.30;67.00;;;;;;4964388;28;20133;-81
2023/11/30 10:42:00;;;;;;;0.90;0.90;;;16.30;66.30;;;;;;4961134;28;20079;-81
2023/11/30 10:44:27;;;;;;;0.80;0.80;;;16.30;66.60;;;;;;4947836;28;20429;-81
2023/11/30 10:46:57;;;;;;;1.38;1.20;;;16.30;66.30;;;;;;4945719;28;20124;-81
2023/11/30 10:49:23;;;;;;;1.05;1.05;;;16.30;66.60;;;;;;4961651;28;20058;-80
2023/11/30 10:51:57;;;;;;;1.00;0.90;;;16.30;66.40;;;;;;4961290;28;20065;-81
2023/11/30 10:54:35;;;;;;;1.20;1.10;;;16.30;66.50;;;;;;4962422;28;20193;-81
2023/11/30 10:57:01;;;;;;;0.90;0.90;;;16.30;66.30;;;;;;4963672;28;20053;-81
2023/11/30 10:59:30;;;;;;;1.10;1.10;;;16.30;66.30;;;;;;4949710;28;20046;-81
2023/11/30 11:01:56;;;;;;;0.73;0.70;;;16.30;66.40;;;;;;4948475;28;20050;-81
2023/11/30 11:04:28;;;;;;;1.52;1.08;;;16.30;66.50;;;;;;4962197;28;20061;-81
2023/11/30 11:07:05;;;;;;;1.27;1.17;;;16.30;66.40;;;;;;4964459;28;20074;-81
2023/11/30 11:09:44;;;;;;;0.90;0.90;;;16.30;66.30;;;;;;4965287;28;20125;-81
2023/11/30 11:12:25;;;;;;;1.13;1.13;;;16.30;66.50;;;;;;4960568;28;30363;-81
2023/11/30 11:14:51;;;;;;;1.17;1.08;;;16.30;66.40;;;;;;4962209;28;20101;-81
2023/11/30 11:17:19;;;;;;;1.20;1.10;;;16.30;66.40;;;;;;4962435;28;20047;-81
2023/11/30 11:19:45;;;;;;;1.10;1.10;;;16.30;66.30;;;;;;4933610;28;20126;-81
2023/11/30 11:22:20;;;;;;;0.88;0.88;;;16.30;66.40;;;;;;4963910;28;20460;-81
2023/11/30 11:24:46;;;;;;;1.00;0.90;;;16.30;66.30;;;;;;4946399;28;20043;-81
2023/11/30 11:27:12;;;;;;;1.17;0.77;;;16.30;66.40;;;;;;4963112;28;20043;-81
2023/11/30 11:29:37;;;;;;;0.93;0.93;;;16.30;66.40;;;;;;4965249;28;20535;-81
2023/11/30 11:32:03;;;;;;;0.98;0.90;;;16.30;66.40;;;;;;4949101;28;20086;-81
2023/11/30 11:34:30;;;;;;;0.80;0.80;;;16.30;66.30;;;;;;4948449;28;20519;-81
2023/11/30 11:36:57;;;;;;;1.02;0.98;;;16.30;66.40;;;;;;4960880;28;20040;-81
2023/11/30 11:39:22;;;;;;;0.80;0.80;;;16.30;66.50;;;;;;4962676;28;20525;-81
2023/11/30 11:41:48;;;;;;;1.45;1.10;;;16.30;66.40;;;;;;4964283;28;20534;-81
2023/11/30 11:44:14;;;;;;;1.00;1.00;;;16.30;66.70;;;;;;4961961;28;20123;-80
2023/11/30 11:46:40;;;;;;;1.15;1.05;;;16.30;66.40;;;;;;4964065;28;20404;-81
2023/11/30 11:49:05;;;;;;;1.00;1.00;;;16.30;66.20;;;;;;4964190;28;20125;-81
2023/11/30 11:51:44;;;;;;;1.00;1.00;;;16.30;66.50;;;;;;4962273;28;20509;-81
2023/11/30 11:54:19;;;;;;;1.05;0.95;;;16.30;66.40;;;;;;4963661;28;20046;-81
2023/11/30 11:56:48;;;;;;;1.08;1.08;;;16.30;66.30;;;;;;4965131;28;20078;-81
2023/11/30 11:59:19;;;;;;;1.20;1.20;;;16.30;66.30;;;;;;4964274;28;20049;-81
2023/11/30 12:01:44;;;;;;;1.05;0.90;;;16.20;66.30;;;;;;4966603;28;20093;-81
2023/11/30 12:04:10;;;;;;;0.90;0.90;;;16.30;67.20;;;;;;4965047;28;20062;-81
2023/11/30 12:06:35;;;;;;;0.90;0.90;;;16.30;66.30;;;;;;4969613;28;20038;-81
2023/11/30 12:09:13;;;;;;;1.08;1.02;;;16.30;66.40;;;;;;4966266;28;20050;-81
2023/11/30 12:11:38;;;;;;;1.00;1.00;;;16.20;66.30;;;;;;4967764;28;20058;-81
2023/11/30 12:14:07;;;;;;;0.98;0.93;;;16.20;66.30;;;;;;4952725;28;20042;-81
2023/11/30 12:16:34;;;;;;;0.70;0.70;;;16.20;66.30;;;;;;4967391;28;20043;-81
2023/11/30 12:19:03;;;;;;;1.00;1.00;;;16.20;66.60;;;;;;4967009;28;20046;-81
2023/11/30 12:21:28;;;;;;;1.13;1.13;;;16.20;66.40;;;;;;4968106;28;20027;-81
2023/11/30 12:23:55;;;;;;;1.00;1.00;;;16.20;66.30;;;;;;4950093;28;20051;-81
2023/11/30 12:26:20;;;;;;;1.00;1.00;;;16.20;66.70;;;;;;4965741;28;20054;-81
2023/11/30 12:28:46;;;;;;;0.90;0.90;;;16.20;66.40;;;;;;4967072;28;20093;-81
2023/11/30 12:31:11;;;;;;;1.10;1.10;;;16.20;66.30;;;;;;4966911;28;20094;-81
2023/11/30 12:33:37;;;;;;;0.90;0.90;;;16.20;66.50;;;;;;4951667;28;20046;-81
2023/11/30 12:36:03;;;;;;;1.05;1.05;;;16.20;66.20;;;;;;4966804;28;20035;-81
2023/11/30 12:38:30;;;;;;;0.80;0.80;;;16.20;66.30;;;;;;4968044;28;20532;-82
2023/11/30 12:40:56;;;;;;;1.02;1.02;;;16.20;67.20;;;;;;4966411;28;20035;-81
2023/11/30 12:43:22;;;;;;;1.00;1.00;;;16.20;66.30;;;;;;4967970;28;20094;-81